createdAt,value
2022-09-07T00:02:00.103Z,17.82
2022-09-07T00:06:07.376Z,18.20
2022-09-07T00:10:09.193Z,18.63
2022-09-07T00:14:10.673Z,18.42
2022-09-07T00:18:12.200Z,18.42
2022-09-07T00:22:13.663Z,18.51
2022-09-07T00:26:24.566Z,18.71
2022-09-07T00:30:27.107Z,18.09
2022-09-07T00:34:28.573Z,17.95
2022-09-07T00:38:30.301Z,17.58
2022-09-07T00:42:31.859Z,17.56
2022-09-07T00:46:33.330Z,18.14
2022-09-07T00:50:44.204Z,17.60
2022-09-07T00:54:53.520Z,17.61
2022-09-07T00:58:56.162Z,17.83
2022-09-07T01:02:59.938Z,17.51
2022-09-07T01:07:03.167Z,17.41
2022-09-07T01:11:05.093Z,17.50
2022-09-07T01:15:07.178Z,17.10
2022-09-07T01:19:20.359Z,17.13
2022-09-07T01:23:55.596Z,17.14
2022-09-07T01:28:18.916Z,17.28
2022-09-07T01:32:35.169Z,16.88
2022-09-07T01:37:14.125Z,16.60
2022-09-07T01:41:42.734Z,16.95
2022-09-07T01:45:45.717Z,17.57
2022-09-07T01:49:54.866Z,17.41
2022-09-07T01:54:10.654Z,17.77
2022-09-07T01:58:20.083Z,17.55
2022-09-07T02:02:24.033Z,16.84
2022-09-07T02:07:15.884Z,16.53
2022-09-07T02:11:21.639Z,17.10
2022-09-07T02:15:32.601Z,17.04
2022-09-07T02:19:45.026Z,16.74
2022-09-07T02:23:54.979Z,17.12
2022-09-07T02:28:03.521Z,17.32
2022-09-07T02:32:05.315Z,16.52
2022-09-07T02:36:08.083Z,16.23
2022-09-07T02:40:11.049Z,16.00
2022-09-07T02:44:18.382Z,16.18
2022-09-07T02:48:38.789Z,16.40
2022-09-07T02:52:50.251Z,16.54
2022-09-07T02:56:54.411Z,16.77
2022-09-07T03:01:07.294Z,16.31
2022-09-07T03:05:21.848Z,16.35
2022-09-07T03:09:28.546Z,15.85
2022-09-07T03:13:30.533Z,15.98
2022-09-07T03:17:32.170Z,16.71
2022-09-07T03:21:33.727Z,16.51
2022-09-07T03:25:35.241Z,16.70
2022-09-07T03:29:40.251Z,16.63
2022-09-07T03:33:43.444Z,16.74
2022-09-07T03:37:44.911Z,16.57
2022-09-07T03:41:46.677Z,16.68
2022-09-07T03:45:48.277Z,16.42
2022-09-07T03:49:51.255Z,16.19
2022-09-07T03:53:52.772Z,15.67
2022-09-07T03:57:54.228Z,16.21
2022-09-07T04:01:55.803Z,16.09
2022-09-07T04:06:01.274Z,15.99
2022-09-07T04:10:03.234Z,16.49
2022-09-07T04:14:04.845Z,16.01
2022-09-07T04:18:06.330Z,16.27
2022-09-07T04:22:07.791Z,16.09
2022-09-07T04:26:18.481Z,16.14
2022-09-07T04:30:20.019Z,16.19
2022-09-07T04:34:21.537Z,16.24
2022-09-07T04:38:23.001Z,16.31
2022-09-07T04:42:24.470Z,16.57
2022-09-07T04:46:28.299Z,16.65
2022-09-07T04:50:29.813Z,17.16
2022-09-07T04:54:32.707Z,17.55
2022-09-07T04:58:34.181Z,17.85
2022-09-07T05:02:36.328Z,17.76
2022-09-07T05:06:37.906Z,17.41
2022-09-07T05:10:39.432Z,17.49
2022-09-07T05:14:40.896Z,17.17
2022-09-07T05:18:42.776Z,17.24
2022-09-07T05:22:44.249Z,17.55
2022-09-07T05:26:45.766Z,17.58
2022-09-07T05:35:09.975Z,17.41
2022-09-07T05:39:11.551Z,17.46
2022-09-07T05:43:13.027Z,17.61
2022-09-07T05:47:14.533Z,17.61
2022-09-07T05:51:16.394Z,17.40
2022-09-07T05:55:29.433Z,18.11
2022-09-07T05:59:32.110Z,18.29
2022-09-07T06:03:35.934Z,17.63
2022-09-07T06:07:37.837Z,17.84
2022-09-07T06:11:39.400Z,17.97
2022-09-07T06:15:41.175Z,18.06
2022-09-07T06:19:42.619Z,18.47
2022-09-07T06:23:45.086Z,18.72
2022-09-07T06:27:48.581Z,19.05
2022-09-07T06:36:16.514Z,18.64
2022-09-07T06:40:17.982Z,19.03
2022-09-07T06:44:19.750Z,19.11
2022-09-07T06:48:21.803Z,19.12
2022-09-07T06:52:23.260Z,19.25
2022-09-07T06:56:27.287Z,19.89
2022-09-07T07:00:28.784Z,19.91
2022-09-07T07:04:30.680Z,20.02
2022-09-07T07:08:32.456Z,20.23
2022-09-07T07:16:37.197Z,20.51
2022-09-07T07:20:40.762Z,20.51
2022-09-07T07:24:42.239Z,20.28
2022-09-07T07:29:04.779Z,20.34
2022-09-07T07:33:08.117Z,20.36
2022-09-07T07:37:09.587Z,20.08
2022-09-07T07:50:30.792Z,20.45
2022-09-07T07:54:16.688Z,20.91
2022-09-07T07:58:18.718Z,21.01
2022-09-07T08:02:20.348Z,20.32
2022-09-07T08:06:21.945Z,20.50
2022-09-07T08:10:24.963Z,20.82
2022-09-07T08:14:26.356Z,20.59
2022-09-07T08:18:28.026Z,20.62
2022-09-07T08:22:32.980Z,20.76
2022-09-07T08:26:36.183Z,20.68
2022-09-07T08:30:39.925Z,20.32
2022-09-07T08:34:41.420Z,20.43
2022-09-07T08:38:43.698Z,21.02
2022-09-07T08:43:27.004Z,20.62
2022-09-07T08:47:40.145Z,20.82
2022-09-07T08:51:49.229Z,20.93
2022-09-07T08:55:56.368Z,20.54
2022-09-07T09:00:06.789Z,20.56
2022-09-07T09:04:27.534Z,21.19
2022-09-07T09:09:07.883Z,21.78
2022-09-07T09:13:09.503Z,21.79
2022-09-07T09:17:22.132Z,21.60
2022-09-07T09:21:23.611Z,22.07
2022-09-07T09:25:36.927Z,21.35
2022-09-07T09:29:38.456Z,21.87
2022-09-07T09:33:39.883Z,21.74
2022-09-07T09:37:43.584Z,22.96
2022-09-07T09:41:45.089Z,22.80
2022-09-07T09:54:44.619Z,22.44
2022-09-07T10:07:36.442Z,22.70
2022-09-07T10:12:06.658Z,22.68
2022-09-07T10:16:11.351Z,22.78
2022-09-07T10:20:12.827Z,22.94
2022-09-07T10:24:15.994Z,23.70
2022-09-07T10:28:22.848Z,24.19
2022-09-07T10:32:39.811Z,24.25
2022-09-07T10:36:54.203Z,24.35
2022-09-07T10:41:02.622Z,24.62
2022-09-07T10:45:21.003Z,24.71
2022-09-07T10:54:33.112Z,24.57
2022-09-07T10:59:03.984Z,25.60
2022-09-07T11:03:27.349Z,25.43
2022-09-07T11:07:52.706Z,25.23
2022-09-07T11:12:03.441Z,25.28
2022-09-07T11:16:50.519Z,25.14
2022-09-07T11:20:45.237Z,24.67
2022-09-07T11:29:30.693Z,24.46
2022-09-07T11:33:39.759Z,24.40
2022-09-07T11:37:59.467Z,24.37
2022-09-07T11:46:55.684Z,24.17
2022-09-07T11:51:38.717Z,23.92
2022-09-07T11:55:45.033Z,24.08
2022-09-07T12:00:20.278Z,23.43
2022-09-07T12:04:39.932Z,24.14
2022-09-07T12:09:01.615Z,24.64
2022-09-07T12:13:26.261Z,24.65
2022-09-07T12:17:37.478Z,24.67
2022-09-07T12:21:50.274Z,24.73
2022-09-07T12:25:52.372Z,24.97
2022-09-07T12:29:56.759Z,25.09
2022-09-07T12:34:32.081Z,24.89
2022-09-07T12:38:33.960Z,24.89
2022-09-07T12:42:37.283Z,24.97
2022-09-07T12:46:39.151Z,24.92
2022-09-07T12:51:04.312Z,25.08
2022-09-07T12:55:28.115Z,24.89
2022-09-07T12:59:36.443Z,25.19
2022-09-07T13:03:53.683Z,25.39
2022-09-07T13:08:28.274Z,25.34
2022-09-07T13:17:46.460Z,24.90
2022-09-07T13:21:50.606Z,25.76
2022-09-07T13:25:54.971Z,26.04
2022-09-07T13:30:21.242Z,24.72
2022-09-07T13:34:34.832Z,26.22
2022-09-07T13:38:36.708Z,26.24
2022-09-07T13:42:38.563Z,26.48
2022-09-07T13:47:02.444Z,25.28
2022-09-07T13:51:29.159Z,25.92
2022-09-07T13:55:52.723Z,25.34
2022-09-07T13:59:55.386Z,25.82
2022-09-07T14:04:02.221Z,26.36
2022-09-07T14:08:03.647Z,26.98
2022-09-07T14:12:15.162Z,25.89
2022-09-07T14:16:16.633Z,26.74
2022-09-07T14:20:18.900Z,26.56
2022-09-07T14:24:31.969Z,26.67
2022-09-07T14:28:38.053Z,27.39
2022-09-07T14:32:40.056Z,27.02
2022-09-07T14:36:46.381Z,27.49
2022-09-07T14:40:48.679Z,27.67
2022-09-07T14:44:51.445Z,27.53
2022-09-07T14:48:55.719Z,27.60
2022-09-07T14:57:19.231Z,26.33
2022-09-07T15:01:38.949Z,26.39
2022-09-07T15:05:48.450Z,26.56
2022-09-07T15:09:49.857Z,26.51
2022-09-07T15:13:56.360Z,26.41
2022-09-07T15:18:06.097Z,26.15
2022-09-07T15:22:13.426Z,25.10
2022-09-07T15:30:36.685Z,25.14
2022-09-07T15:34:38.131Z,24.45
2022-09-07T15:43:03.025Z,24.62
2022-09-07T15:55:55.289Z,25.12
2022-09-07T15:59:56.810Z,24.74
2022-09-07T16:03:59.198Z,24.70
2022-09-07T16:21:15.329Z,24.23
2022-09-07T16:25:16.925Z,24.28
2022-09-07T16:29:18.389Z,24.37
2022-09-07T16:33:19.883Z,24.19
2022-09-07T16:37:21.408Z,24.09
2022-09-07T16:41:29.000Z,23.75
2022-09-07T16:49:52.042Z,23.54
2022-09-07T16:53:55.779Z,23.52
2022-09-07T17:02:18.603Z,23.16
2022-09-07T17:06:21.953Z,23.59
2022-09-07T17:10:23.456Z,23.35
2022-09-07T17:14:24.907Z,22.85
2022-09-07T17:22:47.791Z,23.10
2022-09-07T17:26:49.283Z,22.17
2022-09-07T17:30:50.682Z,22.78
2022-09-07T17:34:52.143Z,22.94
2022-09-07T17:47:36.633Z,22.61
2022-09-07T17:51:38.113Z,22.85
2022-09-07T17:55:39.564Z,22.49
2022-09-07T18:04:11.584Z,22.31
2022-09-07T18:08:13.593Z,22.14
2022-09-07T18:12:15.011Z,21.95
2022-09-07T18:16:20.470Z,21.67
2022-09-07T18:20:24.056Z,22.19
2022-09-07T18:24:25.560Z,21.90
2022-09-07T18:32:48.650Z,21.64
2022-09-07T18:36:50.157Z,21.57
2022-09-07T18:41:00.494Z,21.96
2022-09-07T18:49:23.526Z,21.78
2022-09-07T18:53:26.670Z,22.04
2022-09-07T18:57:28.276Z,21.48
2022-09-07T19:01:32.006Z,21.75
2022-09-07T19:09:55.289Z,21.52
2022-09-07T19:13:57.686Z,21.40
2022-09-07T19:17:59.221Z,21.21
2022-09-07T19:22:02.354Z,21.48
2022-09-07T19:26:05.975Z,20.73
2022-09-07T19:30:08.120Z,21.00
2022-09-07T19:34:10.368Z,20.88
2022-09-07T19:38:12.630Z,20.77
2022-09-07T19:42:14.488Z,20.35
2022-09-07T19:46:21.417Z,20.70
2022-09-07T19:50:25.945Z,20.79
2022-09-07T19:54:27.377Z,20.60
2022-09-07T19:58:28.881Z,20.49
2022-09-07T20:02:30.331Z,21.21
2022-09-07T20:06:33.299Z,20.92
2022-09-07T20:10:36.009Z,20.55
2022-09-07T20:14:37.475Z,20.39
2022-09-07T20:18:39.382Z,20.93
2022-09-07T20:22:40.844Z,20.54
2022-09-07T20:26:42.320Z,20.67
2022-09-07T20:30:44.088Z,20.67
2022-09-07T20:34:46.321Z,20.47
2022-09-07T20:38:53.079Z,20.94
2022-09-07T20:42:54.520Z,21.30
2022-09-07T20:46:56.024Z,20.70
2022-09-07T20:51:03.698Z,20.83
2022-09-07T20:55:05.881Z,20.51
2022-09-07T20:59:07.300Z,20.64
2022-09-07T21:03:10.115Z,21.02
2022-09-07T21:07:11.745Z,21.10
2022-09-07T21:11:19.266Z,21.35
2022-09-07T21:15:20.713Z,21.22
2022-09-07T21:19:22.255Z,21.26
2022-09-07T21:23:24.313Z,21.10
2022-09-07T21:27:25.703Z,21.45
2022-09-07T21:31:29.012Z,21.48
2022-09-07T21:35:33.489Z,21.21
2022-09-07T21:39:35.710Z,20.83
2022-09-07T21:43:38.015Z,21.30
2022-09-07T21:47:39.432Z,21.35
2022-09-07T21:51:40.848Z,20.75
2022-09-07T21:55:42.235Z,20.88
2022-09-07T21:59:43.654Z,20.98
2022-09-07T22:03:47.332Z,20.81
2022-09-07T22:07:48.964Z,20.36
2022-09-07T22:11:50.500Z,20.68
2022-09-07T22:15:51.982Z,20.67
2022-09-07T22:19:53.393Z,20.93
2022-09-07T22:23:57.462Z,20.03
2022-09-07T22:27:59.245Z,20.42
2022-09-07T22:32:00.797Z,20.00
2022-09-07T22:36:21.821Z,19.94
2022-09-07T22:40:23.236Z,20.66
2022-09-07T22:44:26.725Z,19.99
2022-09-07T22:48:29.109Z,20.15
2022-09-07T22:52:30.573Z,20.55
2022-09-07T22:56:33.320Z,20.34
2022-09-07T23:00:36.318Z,20.36
2022-09-07T23:04:37.821Z,20.70
2022-09-07T23:08:39.787Z,20.65
2022-09-07T23:12:41.226Z,19.92
2022-09-07T23:16:43.680Z,19.77
2022-09-07T23:20:46.255Z,20.19
2022-09-07T23:24:48.988Z,19.95
2022-09-07T23:28:55.187Z,20.37
2022-09-07T23:32:56.755Z,19.99
2022-09-07T23:36:58.214Z,20.06
2022-09-07T23:41:00.420Z,20.09
2022-09-07T23:45:01.879Z,19.54
2022-09-07T23:49:03.396Z,20.22
2022-09-07T23:53:04.869Z,20.41
2022-09-07T23:57:06.282Z,20.20
